Latest Weather Observations for Gatton

IDQ60901

Issued at 7:15 pm EST Tuesday 16 September 2014 (issued every 10 minutes, with the page automatically refreshed every 10 minutes)

About weather observations | Map of Brisbane area stations | Latest observations for Brisbane area | Other Formats
Station Details ID: 040082 Name: UNIVERSITY OF QUEENSLAND GATTON Lat: -27.54 Lon: 152.34 Height: 89.0 m
Data from the previous 72 hours. | See also: Recent months at Gatton
Date/Time
EST
Tmp

°C
App
Tmp
°C
Dew
Point
°C
Rel
Hum
%
Delta-T

°C
Wind Press
QNH
hPa
Press
MSL
hPa
Rain
since
9 am
mm
Dir
 
Spd
km/h
Gust
km/h
Spd
kts
Gust
kts
16/07:00pm 20.2 18.3 11.9 59 4.6 NE 13 17 7 9 - - 1.2
16/06:30pm 21.3 19.2 11.1 52 5.6 SSW 13 19 7 10 - - 1.2
16/06:00pm 20.4 18.7 11.3 56 5.0 NNW 11 20 6 11 - - 1.2
16/05:30pm 24.4 21.1 8.0 35 8.7 NW 15 20 8 11 - - 0.4
16/05:00pm 25.1 23.3 8.1 34 9.1 SW 7 13 4 7 - - 0.4
16/04:40pm 25.2 19.1 8.2 34 9.1 SSW 30 50 16 27 - - 0.4
16/04:37pm 25.6 18.3 8.6 34 9.2 SW 37 50 20 27 - - 0.4
16/04:30pm 26.8 21.9 6.8 28 10.6 W 22 30 12 16 - - 0.4
16/04:00pm 26.8 24.0 8.7 32 9.9 W 13 24 7 13 - - 0.4
16/03:30pm 28.6 25.1 5.5 23 12.1 NW 13 19 7 10 - - 0.0
16/03:00pm 30.3 25.1 5.6 21 13.1 W 22 33 12 18 - - 0.0
16/02:00pm 29.6 27.9 7.5 25 12.0 ESE 6 9 3 5 - - 0.0
16/01:30pm 28.5 26.3 7.7 27 11.3 N 9 17 5 9 - - 0.0
16/01:00pm 27.4 26.0 8.8 31 10.2 ENE 6 7 3 4 - - 0.0
16/12:30pm 27.5 26.0 9.3 32 10.1 E 7 15 4 8 - - 0.0
16/12:00pm 27.5 26.3 10.2 34 9.7 S 7 13 4 7 - - 0.0
16/11:30am 26.0 24.8 10.2 37 8.8 ESE 7 11 4 6 - - 0.0
16/11:00am 24.7 23.6 10.6 41 7.9 E 7 15 4 8 - - 0.0
16/10:30am 23.4 22.1 11.1 46 6.9 ENE 9 17 5 9 - - 0.0
16/10:00am 22.1 21.4 13.2 57 5.1 ENE 9 13 5 7 - - 0.0
16/09:30am 19.6 19.1 12.6 64 3.9 ENE 7 11 4 6 - - 0.0
16/09:00am 18.9 18.5 12.4 66 3.6 ENE 6 9 3 5 - - 0.0
16/08:30am 17.6 17.2 12.3 71 2.9 ENE 6 9 3 5 - - 0.0
16/08:00am 15.5 14.4 12.1 80 1.9 SW 9 13 5 7 - - 0.0
16/07:30am 14.1 13.4 11.3 83 1.5 WSW 6 9 3 5 - - 0.0
16/07:00am 12.3 11.1 10.2 87 1.1 W 7 11 4 6 - - 0.0
16/06:30am 10.9 9.1 9.5 91 0.7 W 9 11 5 6 - - 0.0
16/06:00am 10.0 8.4 8.6 91 0.7 WSW 7 11 4 6 - - 0.0
16/05:30am 10.4 8.9 9.0 91 0.7 WSW 7 9 4 5 - - 0.0
16/05:00am 10.4 8.7 8.5 88 0.9 WSW 7 9 4 5 - - 0.0
16/04:30am 10.9 9.1 9.3 90 0.8 W 9 11 5 6 - - 0.0
16/04:00am 11.0 9.2 9.4 90 0.8 W 9 11 5 6 - - 0.0
16/03:30am 10.6 8.7 9.0 90 0.8 W 9 11 5 6 - - 0.0
16/03:00am 10.8 8.9 8.9 88 0.9 W 9 9 5 5 - - 0.0
16/02:30am 10.5 9.2 9.1 91 0.7 W 6 9 3 5 - - 0.0
16/02:00am 11.0 9.8 9.6 91 0.7 WSW 6 6 3 3 - - 0.0
16/01:30am 11.3 10.2 10.0 92 0.7 SW 6 7 3 4 - - 0.0
16/01:00am 11.8 11.8 9.9 88 1.0 CALM 0 0 0 0 - - 0.0
16/12:30am 12.7 13.0 10.8 88 1.0 CALM 0 0 0 0 - - 0.0
16/12:00am 13.7 13.1 10.3 80 1.8 SE 4 9 2 5 - - 0.0
 
Date/Time
EST
Tmp

°C
App
Tmp
°C
Dew
Point
°C
Rel
Hum
%
Delta-T

°C
Wind Press
QNH
hPa
Press
MSL
hPa
Rain
since
9 am
mm
Dir
 
Spd
km/h
Gust
km/h
Spd
kts
Gust
kts
15/11:30pm 16.2 15.8 13.1 82 1.7 SSE 7 11 4 6 - - 0.0
15/11:00pm 16.5 15.7 13.0 80 2.0 SSE 9 13 5 7 - - 0.0
15/10:30pm 16.8 15.7 13.1 79 2.1 S 11 13 6 7 - - 0.0
15/10:00pm 16.9 15.6 12.6 76 2.4 SSE 11 15 6 8 - - 0.0
15/09:30pm 17.4 15.7 12.3 72 2.8 SSE 13 17 7 9 - - 0.0
15/09:00pm 17.8 16.4 12.3 70 3.1 SSE 11 15 6 8 - - 0.0
15/08:30pm 17.5 16.2 12.4 72 2.8 SE 11 13 6 7 - - 0.0
15/08:00pm 16.8 15.1 11.3 70 3.0 E 11 15 6 8 - - 0.0
15/07:30pm 17.6 16.1 11.8 69 3.2 ENE 11 15 6 8 - - 0.0
15/07:00pm 17.8 15.6 10.7 63 3.8 E 13 15 7 8 - - 0.0
15/06:30pm 19.3 18.0 10.0 55 5.0 NNE 7 9 4 5 - - 0.0
15/06:00pm 20.8 18.3 9.7 49 6.0 NNE 13 15 7 8 - - 0.0
15/05:30pm 23.3 21.0 10.4 44 7.1 N 13 17 7 9 - - 0.0
15/05:00pm 23.9 21.7 10.9 44 7.3 N 13 17 7 9 - - 0.0
15/04:30pm 23.9 21.3 10.6 43 7.4 N 15 20 8 11 - - 0.0
15/04:00pm 25.4 21.6 9.7 37 8.7 N 20 26 11 14 - - 0.0
15/03:30pm 26.6 24.2 11.5 39 8.6 N 15 24 8 13 - - 0.0
15/03:00pm 25.1 22.8 11.6 42 7.7 NNE 15 20 8 11 - - 0.0
15/02:30pm 26.0 23.1 9.8 36 9.0 NNE 15 24 8 13 - - 0.0
15/02:00pm 27.2 25.3 11.7 38 8.9 NE 13 19 7 10 - - 0.0
15/01:30pm 26.3 24.6 11.2 38 8.6 NNE 11 15 6 8 - - 0.0
15/01:00pm 25.7 25.4 13.2 46 7.3 NE 7 13 4 7 - - 0.0
15/12:30pm 25.2 24.7 12.8 46 7.2 N 7 13 4 7 - - 0.0
15/12:00pm 24.6 23.7 12.5 46 7.0 E 9 13 5 7 - - 0.0
15/11:30am 23.6 23.3 13.2 52 6.0 ENE 7 13 4 7 - - 0.0
15/11:00am 22.6 21.8 12.8 54 5.6 N 9 15 5 8 - - 0.0
15/10:30am 21.1 20.4 13.3 61 4.5 NE 9 13 5 7 - - 0.0
15/10:00am 20.4 19.3 12.1 59 4.7 ENE 9 15 5 8 - - 0.0
15/09:30am 19.2 18.7 12.5 65 3.8 NE 7 11 4 6 - - 0.0
15/09:00am 18.2 17.9 12.6 70 3.1 SE 6 9 3 5 - - 0.0
15/08:30am 16.5 16.1 12.5 77 2.2 SSW 6 7 3 4 - - 0.0
15/08:00am 14.6 13.2 12.3 86 1.3 WSW 11 15 6 8 - - 0.0
15/07:30am 12.7 11.3 10.9 89 0.9 W 9 11 5 6 - - 0.0
15/07:00am 11.4 9.7 10.0 91 0.7 W 9 11 5 6 - - 0.0
15/06:30am 9.8 8.4 8.9 94 0.4 W 6 7 3 4 - - 0.0
15/06:00am 9.0 6.9 8.1 94 0.4 WSW 9 13 5 7 - - 0.0
15/05:30am 9.1 7.0 8.2 94 0.4 W 9 13 5 7 - - 0.0
15/05:00am 9.4 7.4 8.5 94 0.4 W 9 11 5 6 - - 0.0
15/04:30am 9.3 7.2 8.2 93 0.5 WSW 9 11 5 6 - - 0.0
15/04:00am 9.6 7.6 8.5 93 0.5 W 9 11 5 6 - - 0.0
15/03:30am 10.0 8.1 8.9 93 0.5 W 9 11 5 6 - - 0.0
15/03:00am 10.3 8.4 9.2 93 0.5 WSW 9 13 5 7 - - 0.0
15/02:30am 10.4 8.9 9.3 93 0.6 W 7 9 4 5 - - 0.0
15/02:00am 10.8 9.0 9.6 92 0.6 W 9 11 5 6 - - 0.0
15/01:30am 10.6 9.4 9.5 93 0.6 W 6 11 3 6 - - 0.0
15/01:00am 11.1 10.1 10.3 95 0.4 WNW 6 7 3 4 - - 0.0
15/12:30am 10.9 10.8 9.3 90 0.8 CALM 0 0 0 0 - - 0.0
15/12:00am 11.8 12.0 10.5 92 0.7 CALM 0 0 0 0 - - 0.0
 
Date/Time
EST
Tmp

°C
App
Tmp
°C
Dew
Point
°C
Rel
Hum
%
Delta-T

°C
Wind Press
QNH
hPa
Press
MSL
hPa
Rain
since
9 am
mm
Dir
 
Spd
km/h
Gust
km/h
Spd
kts
Gust
kts
14/11:30pm 12.2 12.0 10.6 90 0.8 SSE 2 9 1 5 - - 0.0
14/11:00pm 12.7 11.5 10.2 85 1.3 SE 7 9 4 5 - - 0.0
14/10:30pm 14.9 13.9 12.4 85 1.4 SE 9 11 5 6 - - 0.0
14/10:00pm 14.1 13.0 10.7 80 1.8 SE 7 9 4 5 - - 0.0
14/09:30pm 15.6 14.6 12.2 80 1.9 SE 9 11 5 6 - - 0.0
14/09:00pm 13.9 13.5 11.1 83 1.5 SE 4 6 2 3 - - 0.0
14/08:30pm 14.9 13.9 10.9 77 2.1 SE 7 9 4 5 - - 0.0
14/08:00pm 16.5 15.4 12.1 75 2.4 ENE 9 9 5 5 - - 0.0
14/07:30pm 17.7 16.7 12.4 71 2.9 NE 9 15 5 8 - - 0.0
14/07:00pm 18.6 17.3 12.4 67 3.5 ENE 11 15 6 8 - - 0.0
14/06:30pm 18.1 16.8 11.4 65 3.7 ENE 9 19 5 10 - - 0.0
14/06:00pm 19.4 19.7 10.9 58 4.6 CALM 0 0 0 0 - - 0.0
14/05:30pm 21.4 20.7 12.0 55 5.3 N 7 9 4 5 - - 0.0
14/05:00pm 23.6 22.5 10.6 44 7.2 NNE 7 9 4 5 - - 0.0
14/04:30pm 24.3 23.1 9.5 39 8.1 ENE 6 9 3 5 - - 0.0
14/04:00pm 24.7 22.8 9.0 37 8.5 E 9 13 5 7 - - 0.0
14/03:30pm 25.2 24.4 9.5 37 8.6 NE 4 9 2 5 - - 0.0
14/03:00pm 24.6 22.3 9.0 37 8.5 E 11 17 6 9 - - 0.0
14/02:30pm 24.7 23.0 9.8 39 8.2 E 9 15 5 8 - - 0.0
14/02:00pm 24.0 23.1 9.2 39 8.0 NNW 4 11 2 6 - - 0.0
14/01:30pm 24.3 23.6 11.9 45 7.1 ENE 7 17 4 9 - - 0.0
14/01:00pm 23.0 21.0 10.1 44 7.1 NNE 11 17 6 9 - - 0.0
14/12:30pm 22.5 20.8 10.0 45 6.8 E 9 15 5 8 - - 0.0
14/12:00pm 22.4 21.3 11.8 51 6.0 NNE 9 20 5 11 - - 0.0
14/11:30am 21.2 19.7 11.8 55 5.3 ENE 11 17 6 9 - - 0.0
14/11:00am 20.6 20.0 12.3 59 4.7 NNE 7 11 4 6 - - 0.0
14/10:30am 20.5 19.8 13.2 63 4.2 NNE 9 17 5 9 - - 0.0
14/10:00am 19.7 19.4 13.4 67 3.6 N 7 13 4 7 - - 0.0
14/09:30am 18.2 18.0 13.7 75 2.6 W 7 11 4 6 - - 0.0
14/09:00am 17.0 16.3 13.1 78 2.2 W 9 13 5 7 - - 5.6
14/08:30am 15.7 14.6 13.0 84 1.5 W 11 13 6 7 - - 5.6
14/08:00am 14.3 13.0 12.5 89 1.0 W 11 15 6 8 - - 5.6
14/07:30am 12.9 11.3 11.6 92 0.7 W 11 13 6 7 - - 5.6
14/07:00am 11.8 10.8 10.9 94 0.5 W 7 11 4 6 - - 5.6
14/06:30am 11.0 9.5 10.5 97 0.3 W 9 11 5 6 - - 5.6
14/06:00am 10.4 9.1 9.8 96 0.3 WSW 7 9 4 5 - - 5.6
14/05:30am 11.1 10.0 10.6 97 0.3 WSW 7 11 4 6 - - 5.6
14/05:00am 10.7 9.1 10.2 97 0.3 WSW 9 13 5 7 - - 5.6
14/04:30am 10.5 9.2 9.9 96 0.3 W 7 11 4 6 - - 5.6
14/04:00am 10.5 8.4 9.9 96 0.3 W 11 13 6 7 - - 5.6
14/03:30am 10.8 9.8 10.2 96 0.3 W 6 9 3 5 - - 5.6
14/03:00am 11.0 9.9 10.5 97 0.3 SW 7 11 4 6 - - 5.6
14/02:30am 10.4 9.3 9.8 96 0.3 W 6 9 3 5 - - 5.6
14/02:00am 10.7 9.6 9.8 94 0.5 W 6 7 3 4 - - 5.4
14/01:30am 11.2 10.2 10.3 94 0.5 W 6 7 3 4 - - 5.4
14/01:00am 12.0 12.3 10.9 93 0.6 CALM 0 2 0 1 - - 5.4
14/12:30am 11.7 10.2 10.4 92 0.7 S 9 11 5 6 - - 5.4
14/12:00am 12.6 12.6 11.3 92 0.7 W 2 7 1 4 - - 5.4
 
Date/Time
EST
Tmp

°C
App
Tmp
°C
Dew
Point
°C
Rel
Hum
%
Delta-T

°C
Wind Press
QNH
hPa
Press
MSL
hPa
Rain
since
9 am
mm
Dir
 
Spd
km/h
Gust
km/h
Spd
kts
Gust
kts
13/11:30pm 13.4 12.7 12.1 92 0.7 W 7 9 4 5 - - 5.4
13/11:00pm 13.9 12.6 12.6 92 0.7 W 11 13 6 7 - - 5.4
13/10:30pm 14.4 13.9 12.8 90 0.9 WSW 7 9 4 5 - - 5.4
13/10:00pm 15.0 12.8 13.2 89 1.0 ESE 17 22 9 12 - - 5.0
13/09:30pm 15.2 14.6 13.4 89 1.0 S 9 15 5 8 - - 2.6
13/09:00pm 16.4 16.0 12.9 80 2.0 S 7 9 4 5 - - 0.8
13/08:30pm 16.3 15.5 12.8 80 1.9 SSE 9 15 5 8 - - 0.8
13/08:00pm 16.1 14.9 12.8 81 1.8 SE 11 15 6 8 - - 0.8
13/07:30pm 16.2 14.9 12.4 78 2.1 SE 11 15 6 8 - - 0.8

Latest Capital City Observations: Canberra | Sydney | Melbourne | Brisbane | Adelaide | Perth | Hobart | Darwin

Other Formats:

Comma delimited format used in spreadsheet applications
http://www.bom.gov.au/fwo/IDQ60901/IDQ60901.94562.axf

JavaScript Object Notation format (JSON) in row-major order
http://www.bom.gov.au/fwo/IDQ60901/IDQ60901.94562.json